Tropical Cyclones
[Index]
Main Index Home Page Stock Weather Photos Extreme Storms Discussion Storm News and Storm Chasing Reports Tropical Cyclones / Hurricanes / Typhoons Weather Data and Links Wild Fires / Bushfires Weather Observation Techniques Weather Picture Catalogue Tornado Pictures and Reports Stock Video Footage and DVDs for sale
Season 1967-1968 Tropical Cyclone 196768_11 Track Map
Season 1967-1968 Summaries: [BoM-AU] [JTWC-AU] [JTWC-SIO] [JTWC-SPAC] [JTWC-SH]
<<- Previous TC | BoM 1967-1968 Season | Next TC ->>

click for intensity scale information  Lat/long Grid: Show Hide

 Date Labels: Show Hide

Bureau of Meteorology Tropical Cyclone Data

Name: 196768_11
Number: 431 / 196768_11

02 Feb 1968 23:00 UTC to 05 Feb 1968 05:00 UTC

    date/time    lat    long    hPa   cat  kts
1968-02-02 23   14.5   139.7   1006                     
1968-02-03 02   14.5   139.7   1006                     
1968-02-03 05   14.5   139.6   1006                     
1968-02-03 08   14.6   139.5   1006                     
1968-02-03 11   14.6   139.4   1006                     
1968-02-03 14   14.6   139.3   1006                     
1968-02-03 17   14.7   139.2   1006                     
1968-02-03 20   14.7   139.1   1005                     
1968-02-03 23   14.7   139.0   1005                     
1968-02-04 02   14.7   138.7   1004                     
1968-02-04 05   14.7   138.4   1002                     
1968-02-04 08   14.7   137.9   1002                     
1968-02-04 11   14.7   137.4   1002                     
1968-02-04 14   14.7   136.8   1002                     
1968-02-04 17   14.7   136.3   1002                     
1968-02-04 20   15.0   135.6   1002                     
1968-02-04 23   15.2   135.2   1002                     
1968-02-05 02   15.5   134.9   1002                     
1968-02-05 05   16.0   134.9   1005                     
Winds are 10-min average.

Tropical cyclone tracks developed by Michael Bath using data from the Bureau of Meteorology and Google Maps.


[Australian Severe Weather index] [Copyright Notice] [Email Contacts] [Search This Site] [Privacy Policy]
Document: tropical_cyclone_196768_11.htm Updated: 30 May 2013